This is the latest recevied weather packets stored in our database for station/object K5NOC-12. If no packets are shown the sender has not sent any weather packets the latest 10 day(s).
| Time | Temp. | Humidity | Pressure | Rain* | Wind** | Luminosity | Snow |
|---|---|---|---|---|---|---|---|
| 1777579871 | 18.33° C | 36% | 1016.1 hPa | 0 mm | - | - | - |
| 1777578971 | 17.78° C | 36% | 1016.2 hPa | 0 mm | - | - | - |
| 1777578071 | 17.78° C | 36% | 1016.4 hPa | 0 mm | - | - | - |
| 1777577171 | 17.22° C | 36% | 1016.4 hPa | 0 mm | - | - | - |
| 1777576271 | 17.22° C | 37% | 1016.7 hPa | 0 mm | - | - | - |
| 1777575371 | 17.78° C | 37% | 1016.9 hPa | 0 mm | - | - | - |
| 1777574470 | 17.22° C | 38% | 1017.1 hPa | 0 mm | - | - | - |
| 1777573570 | 16.67° C | 40% | 1017.2 hPa | 0 mm | - | - | - |
| 1777572670 | 16.67° C | 40% | 1017.6 hPa | 0 mm | - | - | - |
| 1777571770 | 16.11° C | 42% | 1017.8 hPa | 0 mm | - | - | - |
| 1777570870 | 16.11° C | 43% | 1018.2 hPa | 0 mm | - | - | - |
| 1777569969 | 15.56° C | 46% | 1018.2 hPa | 0 mm | - | - | - |
| 1777569069 | 15° C | 52% | 1018.3 hPa | 0 mm | - | - | - |
| 1777568169 | 14.44° C | 52% | 1018.5 hPa | 0 mm | - | - | - |
| 1777567269 | 13.89° C | 55% | 1018.9 hPa | 0 mm | - | - | - |
| 1777566369 | 12.78° C | 62% | 1018.7 hPa | 0 mm | - | - | - |
| 1777565469 | 12.22° C | 62% | 1018.5 hPa | 0 mm | - | - | - |
| 1777564569 | 11.67° C | 65% | 1018.7 hPa | 0 mm | - | - | - |
| 1777563668 | 11.67° C | 66% | 1018.8 hPa | 0 mm | - | - | - |
| 1777562768 | 11.11° C | 66% | 1018.7 hPa | 0 mm | - | - | - |
| 1777561868 | 11.11° C | 68% | 1018.6 hPa | 0 mm | - | - | - |
| 1777560968 | 10.56° C | 70% | 1018.7 hPa | 0 mm | - | - | - |
| 1777560068 | 10° C | 72% | 1018.9 hPa | 0 mm | - | - | - |
| 1777559167 | 9.44° C | 73% | 1018.9 hPa | 0 mm | - | - | - |
| 1777558267 | 9.44° C | 73% | 1019.3 hPa | 0 mm | - | - | - |
* Rain latest hour (hover to see other rain measurements)
** Current wind speed in m/s (hover to see current wind gust speed)